FMNNFMMI

Guest
Details From FMNN - FASCENE
To FMMI - IVATO
Flight Number -
Tags generated
Created
Modified
Stats Distance 333 nm / 617 km
Max Altitude 0 ft / 0 m
Waypoints 2
Social Downloads 1
Likes 0
Share VATSIM

Download

Looking for another format? Having issues loading an existing format? Contact us
Advertisement - Login to hide

Notes

Basic altitude profile: - Ascent Rate: 2500ft/min - Ascent Speed: 250kts - Cruise Altitude: 35000ft - Cruise Speed: 420kts - Descent Rate: 1500ft/min - Descent Speed: 250kts Options: - Use NATs: no - Use PACOTS: no - Use low airways: no - Use high airways: no

Route

FMNN FMMI

ID Type Via Altitude Latitude Longitude Leg Dist Tot Dist Heading (true) Name
O FMNN APT - 0 ft / 0 m -13.31207˚ 48.31482˚ - 0 nm - FASCENE
O FMMI APT - 0 ft / 0 m -18.79695˚ 47.47881˚ 332 nm 332 nm 188° / 188° IVATO

Altitude Profile

Advertisement - Login to hide

Weather


0- 5 10 15 20 25 30 35+ Temperature / ° C

Clouds and Precipitation
Forecast for 2018-05-23 18:00 UTC. Updated 2 hours ago

Ground ~20,000 ft ~40,000 ft Winds

FMNN

Details ICAO FMNN (NOS)
Name FASCENE
Region Comoros, Mayotte, Réunion and Madagascar
Timezone Indian/Antananarivo (UTC+3.0)
Stats Elevation 36 ft / 11 m (AMSL)
Location -13.312067° 48.314821°
Runways 1
Magnetic Variation 9.471° W

METAR

Not found

TAF

Not found

Departure Runways

ID Width Length Bearing (true) Bearing (mag) Surface Threshold Offset Overrun Length
05 148 ft / 45 m 7,220 ft / 2,201 m 42.86° 52.33° Asphalt 0 ft / 0 m 164 ft / 50 m
23 148 ft / 45 m 7,220 ft / 2,201 m 222.85° 232.32° Asphalt 0 ft / 0 m 197 ft / 60 m

FMMI

Details ICAO FMMI (TNR)
Name IVATO
Region Comoros, Mayotte, Réunion and Madagascar
Timezone Indian/Antananarivo (UTC+3.0)
Stats Elevation 4,198 ft / 1,280 m (AMSL)
Location -18.796950° 47.478806°
Runways 1
Magnetic Variation 15.172° W

METAR

FMMI 231830Z 16006KT 9999 FEW017 14/12 Q1027 NOSIG

Decode

TAF

TAF FMMI 231100Z 2312/2418 14012KT 9999 FEW017 BKN020= TAF FMEE 231100Z 2312/2418 12020KT 9999 SCT023 PROB30 TEMPO 2312/2403 6000 SHRA BKN021

Decode

Destination Runways

ID Width Length Bearing (true) Bearing (mag) Surface Threshold Offset Overrun Length
11 148 ft / 45 m 10,167 ft / 3,099 m 98.92° 114.09° Asphalt 0 ft / 0 m 90 ft / 27 m
29 148 ft / 45 m 10,167 ft / 3,099 m 278.91° 294.08° Asphalt 0 ft / 0 m 90 ft / 27 m

Approach Navaids

Runway Type Ident Frequency Range Bearing (true) Bearing (mag) Slope Elevation
11 Localiser IO 109.50 MHz 18 nm / 33 km 98.89° 114.06° - 4,125 ft / 1,257 m (AMSL)
11 Glidescope IO 109.50 MHz 10 nm / 19 km 98.91° 114.08° 3.00° 4,198 ft / 1,280 m (AMSL)

Popular Alternatives